createdAt,value
2023-01-17T00:00:07.335Z,98671.22
2023-01-17T00:02:35.655Z,98677.75
2023-01-17T00:05:23.013Z,98669.69
2023-01-17T00:08:20.216Z,98670.94
2023-01-17T00:10:48.857Z,98673.44
2023-01-17T00:13:17.506Z,98675.94
2023-01-17T00:15:46.043Z,98674.00
2023-01-17T00:18:14.174Z,98683.59
2023-01-17T00:21:01.173Z,98685.81
2023-01-17T00:23:47.537Z,98676.06
2023-01-17T00:26:20.257Z,98677.03
2023-01-17T00:28:49.528Z,98674.56
2023-01-17T00:31:17.893Z,98674.41
2023-01-17T00:33:46.472Z,98671.22
2023-01-17T00:36:14.593Z,98672.38
2023-01-17T00:38:42.586Z,98668.06
2023-01-17T00:41:13.183Z,98667.47
2023-01-17T00:44:00.960Z,98673.03
2023-01-17T00:46:47.569Z,98677.66
2023-01-17T00:49:34.131Z,98702.34
2023-01-17T00:52:20.813Z,98695.91
2023-01-17T00:55:07.299Z,98699.38
2023-01-17T00:57:53.823Z,98691.56
2023-01-17T01:00:41.085Z,98684.59
2023-01-17T01:03:30.533Z,98692.38
2023-01-17T01:06:17.544Z,98700.63
2023-01-17T01:09:04.418Z,98699.78
2023-01-17T01:11:51.011Z,98702.97
2023-01-17T01:14:37.893Z,98692.09
2023-01-17T01:17:24.429Z,98689.44
2023-01-17T01:20:10.911Z,98693.06
2023-01-17T01:22:57.548Z,98681.63
2023-01-17T01:25:43.949Z,98682.34
2023-01-17T01:28:32.475Z,98680.56
2023-01-17T01:31:23.567Z,98688.81
2023-01-17T01:33:53.307Z,98679.03
2023-01-17T01:36:22.058Z,98681.84
2023-01-17T01:38:50.631Z,98678.22
2023-01-17T01:41:19.065Z,98682.41
2023-01-17T01:43:52.474Z,98679.34
2023-01-17T01:46:25.939Z,98679.75
2023-01-17T01:49:02.626Z,98679.59
2023-01-17T01:51:39.180Z,98677.78
2023-01-17T01:54:21.909Z,98679.44
2023-01-17T01:56:54.679Z,98682.09
2023-01-17T01:59:23.777Z,98673.47
2023-01-17T02:01:56.408Z,98683.06
2023-01-17T02:04:26.821Z,98684.06
2023-01-17T02:07:22.500Z,98675.97
2023-01-17T02:09:50.582Z,98664.69
2023-01-17T02:12:20.397Z,98673.47
2023-01-17T02:14:48.988Z,98661.06
2023-01-17T02:17:28.969Z,98670.66
2023-01-17T02:20:09.050Z,98665.66
2023-01-17T02:23:14.441Z,98653.25
2023-01-17T02:25:59.980Z,98649.63
2023-01-17T02:28:40.259Z,98639.69
2023-01-17T02:31:27.181Z,98639.56
2023-01-17T02:34:07.406Z,98614.75
2023-01-17T02:37:03.444Z,98602.16
2023-01-17T02:39:49.174Z,98604.81
2023-01-17T02:42:20.472Z,98604.28
2023-01-17T02:44:48.845Z,98595.63
2023-01-17T02:47:30.507Z,98594.81
2023-01-17T02:50:15.559Z,98584.06
2023-01-17T02:53:04.049Z,98590.22
2023-01-17T02:55:38.460Z,98600.81
2023-01-17T02:58:25.012Z,98591.16
2023-01-17T03:01:17.648Z,98579.75
2023-01-17T03:03:58.923Z,98571.94
2023-01-17T03:06:41.898Z,98576.25
2023-01-17T03:09:10.882Z,98597.59
2023-01-17T03:11:39.032Z,98611.41
2023-01-17T03:14:07.141Z,98615.81
2023-01-17T03:16:35.420Z,98608.69
2023-01-17T03:19:04.354Z,98617.06
2023-01-17T03:21:32.988Z,98606.47
2023-01-17T03:24:01.097Z,98607.59
2023-01-17T03:26:29.859Z,98599.78
2023-01-17T03:28:58.784Z,98590.84
2023-01-17T03:31:27.069Z,98595.19
2023-01-17T03:33:55.348Z,98601.03
2023-01-17T03:36:23.420Z,98596.16
2023-01-17T03:38:52.052Z,98595.56
2023-01-17T03:41:20.255Z,98594.47
2023-01-17T03:43:48.362Z,98600.28
2023-01-17T03:46:25.750Z,98601.97
2023-01-17T03:48:54.023Z,98599.19
2023-01-17T03:51:22.285Z,98591.25
2023-01-17T03:53:51.118Z,98584.94
2023-01-17T03:56:19.823Z,98573.25
2023-01-17T03:58:48.110Z,98564.31
2023-01-17T04:01:16.378Z,98561.50
2023-01-17T04:03:44.943Z,98557.19
2023-01-17T04:06:12.838Z,98546.44
2023-01-17T04:08:40.688Z,98545.63
2023-01-17T04:11:09.151Z,98532.53
2023-01-17T04:13:37.361Z,98518.59
2023-01-17T04:16:05.929Z,98512.44
2023-01-17T04:18:34.472Z,98517.22
2023-01-17T04:21:02.992Z,98513.88
2023-01-17T04:23:31.599Z,98513.19
2023-01-17T04:25:59.712Z,98510.81
2023-01-17T04:28:27.874Z,98511.09
2023-01-17T04:31:00.919Z,98522.00
2023-01-17T04:33:29.505Z,98526.59
2023-01-17T04:35:57.782Z,98525.09
2023-01-17T04:38:25.978Z,98521.88
2023-01-17T04:40:54.213Z,98534.56
2023-01-17T04:43:22.868Z,98535.56
2023-01-17T04:45:58.633Z,98517.56
2023-01-17T04:48:27.719Z,98502.00
2023-01-17T04:51:06.342Z,98496.59
2023-01-17T04:53:34.313Z,98487.81
2023-01-17T04:56:02.396Z,98495.03
2023-01-17T04:58:31.044Z,98492.53
2023-01-17T05:01:06.936Z,98485.72
2023-01-17T05:03:35.440Z,98483.94
2023-01-17T05:06:03.763Z,98482.22
2023-01-17T05:08:31.763Z,98486.69
2023-01-17T05:10:59.842Z,98473.47
2023-01-17T05:13:27.869Z,98476.13
2023-01-17T05:15:57.976Z,98476.38
2023-01-17T05:18:26.621Z,98479.03
2023-01-17T05:20:55.214Z,98484.06
2023-01-17T05:23:23.292Z,98489.63
2023-01-17T05:25:51.813Z,98493.13
2023-01-17T05:28:20.412Z,98503.59
2023-01-17T05:30:49.145Z,98500.22
2023-01-17T05:33:17.503Z,98498.41
2023-01-17T05:35:46.294Z,98507.22
2023-01-17T17:25:35.836Z,98183.53
2023-01-17T17:28:05.464Z,98177.94
2023-01-17T17:30:33.793Z,98184.13
2023-01-17T17:33:04.870Z,98193.00
2023-01-17T17:35:35.995Z,98193.38
2023-01-17T17:38:07.269Z,98191.22
2023-01-17T17:40:36.594Z,98182.09
2023-01-17T17:43:05.228Z,98189.16
2023-01-17T17:45:33.765Z,98180.97
2023-01-17T17:48:02.434Z,98180.53
2023-01-17T17:50:31.121Z,98172.69
2023-01-17T17:52:59.275Z,98173.66
2023-01-17T17:55:29.280Z,98179.34
2023-01-17T17:57:57.848Z,98177.50
2023-01-17T18:00:26.249Z,98181.53
2023-01-17T18:02:54.649Z,98185.69
2023-01-17T18:05:22.824Z,98192.88
2023-01-17T18:07:52.226Z,98187.66
2023-01-17T18:10:20.581Z,98194.84
2023-01-17T18:12:50.226Z,98198.53
2023-01-17T18:15:19.546Z,98213.00
2023-01-17T18:17:48.898Z,98224.63
2023-01-17T18:20:17.475Z,98232.94
2023-01-17T18:22:46.030Z,98221.22
2023-01-17T18:25:14.738Z,98229.16
2023-01-17T18:27:46.515Z,98228.34
2023-01-17T18:30:14.957Z,98221.22
2023-01-17T18:32:43.355Z,98217.56
2023-01-17T18:35:12.108Z,98215.75
2023-01-17T18:37:40.803Z,98221.75
2023-01-17T18:40:10.090Z,98220.75
2023-01-17T18:42:39.850Z,98216.16
2023-01-17T18:45:08.564Z,98208.88
2023-01-17T18:47:38.883Z,98209.03
2023-01-17T18:50:07.771Z,98206.50
2023-01-17T18:52:36.214Z,98210.44
2023-01-17T18:55:05.591Z,98208.13
2023-01-17T18:57:34.256Z,98203.13
2023-01-17T19:00:03.169Z,98200.78
2023-01-17T19:02:31.979Z,98194.97
2023-01-17T19:05:02.586Z,98201.94
2023-01-17T19:07:33.244Z,98210.41
2023-01-17T19:10:02.106Z,98216.53
2023-01-17T19:12:30.543Z,98209.25
2023-01-17T19:14:58.742Z,98216.09
2023-01-17T19:17:27.374Z,98216.91
2023-01-17T19:19:57.101Z,98235.28
2023-01-17T19:22:25.429Z,98226.81
2023-01-17T19:24:54.092Z,98224.31
2023-01-17T19:27:22.210Z,98229.91
2023-01-17T19:29:50.891Z,98223.25
2023-01-17T19:32:19.808Z,98223.25
2023-01-17T19:34:48.129Z,98228.06
2023-01-17T19:37:16.497Z,98225.00
2023-01-17T19:39:45.932Z,98224.63
2023-01-17T19:42:16.270Z,98234.72
2023-01-17T19:44:44.773Z,98222.44
2023-01-17T19:47:13.124Z,98221.63
2023-01-17T19:49:43.158Z,98226.38
2023-01-17T19:52:12.069Z,98229.56
2023-01-17T19:54:41.773Z,98216.69
2023-01-17T19:57:10.054Z,98212.09
2023-01-17T19:59:38.374Z,98215.56
2023-01-17T20:02:06.669Z,98210.94
2023-01-17T20:04:35.119Z,98220.72
2023-01-17T20:07:03.509Z,98217.22
2023-01-17T20:09:32.233Z,98215.94
2023-01-17T20:12:01.593Z,98217.06
2023-01-17T20:14:30.281Z,98212.19
2023-01-17T20:16:58.989Z,98211.19
2023-01-17T20:19:27.839Z,98212.69
2023-01-17T20:21:56.417Z,98205.59
2023-01-17T20:24:24.553Z,98188.72
2023-01-17T20:26:53.041Z,98193.19
2023-01-17T20:29:21.383Z,98184.91
2023-01-17T20:31:53.249Z,98194.66
2023-01-17T20:34:21.799Z,98198.16
2023-01-17T20:36:50.041Z,98194.84
2023-01-17T20:39:19.832Z,98189.38
2023-01-17T20:41:50.103Z,98183.41
2023-01-17T20:44:19.986Z,98186.28
2023-01-17T20:46:48.543Z,98190.47
2023-01-17T20:49:19.818Z,98200.88
2023-01-17T20:51:53.202Z,98203.16
2023-01-17T20:54:27.180Z,98201.63
2023-01-17T20:56:56.782Z,98204.28
2023-01-17T20:59:25.057Z,98207.72
2023-01-17T21:01:54.305Z,98200.13
2023-01-17T21:04:26.397Z,98191.91
2023-01-17T21:11:31.067Z,98213.75
2023-01-17T21:17:48.129Z,98202.69
2023-01-17T21:20:17.700Z,98203.53
2023-01-17T21:22:45.872Z,98204.53
2023-01-17T21:25:15.469Z,98201.59
2023-01-17T21:27:44.443Z,98199.22
2023-01-17T21:30:13.641Z,98209.28
2023-01-17T21:36:48.407Z,98210.81
2023-01-17T21:39:19.279Z,98209.13
2023-01-17T21:41:49.890Z,98207.09
2023-01-17T21:44:21.125Z,98212.56
2023-01-17T21:46:56.256Z,98199.16
2023-01-17T21:49:37.333Z,98199.00
2023-01-17T21:52:05.407Z,98189.75
2023-01-17T21:54:52.218Z,98201.88
2023-01-17T22:00:27.143Z,98200.88
2023-01-17T22:02:56.998Z,98208.28
2023-01-17T22:05:28.651Z,98210.81
2023-01-17T22:08:13.051Z,98200.34
2023-01-17T22:10:45.586Z,98190.09
2023-01-17T22:13:20.358Z,98191.38
2023-01-17T22:15:59.237Z,98185.91
2023-01-17T22:18:28.744Z,98192.72
2023-01-17T22:20:57.943Z,98197.34
2023-01-17T22:23:26.737Z,98194.38
2023-01-17T22:26:01.666Z,98196.41
2023-01-17T22:28:34.195Z,98197.94
2023-01-17T22:31:21.307Z,98217.47
2023-01-17T22:34:01.330Z,98215.50
2023-01-17T22:36:32.004Z,98230.00
2023-01-17T22:39:00.504Z,98224.88
2023-01-17T22:41:32.055Z,98226.81
2023-01-17T22:44:02.896Z,98221.97
2023-01-17T22:46:33.398Z,98225.63
2023-01-17T22:49:01.610Z,98225.16
2023-01-17T22:51:30.207Z,98228.63
2023-01-17T22:54:00.850Z,98229.47
2023-01-17T22:56:32.349Z,98220.31
2023-01-17T22:59:01.344Z,98217.06
2023-01-17T23:01:32.931Z,98223.94
2023-01-17T23:04:03.827Z,98213.66
2023-01-17T23:06:37.762Z,98207.53
2023-01-17T23:09:09.335Z,98203.91
2023-01-17T23:11:44.210Z,98192.19
2023-01-17T23:14:17.089Z,98199.44
2023-01-17T23:17:05.613Z,98185.38
2023-01-17T23:19:37.740Z,98185.69
2023-01-17T23:22:20.776Z,98190.81
2023-01-17T23:24:53.848Z,98192.81
2023-01-17T23:27:51.003Z,98175.94
2023-01-17T23:30:27.050Z,98162.72
2023-01-17T23:32:59.127Z,98157.69
2023-01-17T23:35:33.613Z,98170.78
2023-01-17T23:38:21.013Z,98174.56
2023-01-17T23:41:09.652Z,98174.69
2023-01-17T23:43:38.418Z,98180.00
2023-01-17T23:46:11.973Z,98180.16
2023-01-17T23:48:40.277Z,98174.03
2023-01-17T23:51:09.068Z,98175.84
2023-01-17T23:53:39.154Z,98174.69
2023-01-17T23:56:15.313Z,98183.94
2023-01-17T23:58:43.468Z,98192.19
